createdAt,value
2023-03-16T00:00:15.373Z,21.07
2023-03-16T00:02:42.840Z,21.40
2023-03-16T00:05:11.374Z,19.53
2023-03-16T00:07:37.827Z,19.80
2023-03-16T00:10:06.150Z,19.73
2023-03-16T00:12:32.691Z,20.17
2023-03-16T00:14:59.243Z,27.07
2023-03-16T00:17:25.582Z,23.17
2023-03-16T00:19:56.231Z,18.43
2023-03-16T00:22:27.597Z,20.98
2023-03-16T00:24:54.983Z,18.97
2023-03-16T00:27:23.169Z,22.80
2023-03-16T00:29:51.557Z,18.50
2023-03-16T00:32:20.886Z,24.37
2023-03-16T00:34:47.791Z,20.50
2023-03-16T00:37:18.366Z,20.03
2023-03-16T00:39:46.518Z,20.83
2023-03-16T00:42:15.043Z,19.60
2023-03-16T00:44:42.567Z,23.80
2023-03-16T00:47:09.703Z,28.83
2023-03-16T00:49:36.708Z,22.53
2023-03-16T00:52:04.618Z,21.87
2023-03-16T00:54:31.534Z,23.10
2023-03-16T00:56:58.601Z,20.37
2023-03-16T00:59:25.153Z,21.13
2023-03-16T01:01:56.100Z,24.00
2023-03-16T01:04:22.845Z,23.07
2023-03-16T01:06:49.367Z,21.07
2023-03-16T01:09:15.899Z,22.43
2023-03-16T01:11:42.420Z,23.07
2023-03-16T01:14:10.011Z,24.30
2023-03-16T01:16:36.393Z,22.63
2023-03-16T01:19:03.325Z,23.80
2023-03-16T01:21:29.901Z,25.07
2023-03-16T01:23:56.600Z,24.37
2023-03-16T01:26:23.276Z,24.50
2023-03-16T01:28:49.664Z,26.13
2023-03-16T01:31:16.364Z,22.90
2023-03-16T01:33:43.546Z,25.73
2023-03-16T01:36:15.567Z,24.80
2023-03-16T01:38:42.399Z,24.17
2023-03-16T01:41:11.621Z,25.40
2023-03-16T01:43:39.893Z,25.80
2023-03-16T01:46:13.550Z,27.20
2023-03-16T01:48:47.738Z,28.47
2023-03-16T01:51:28.280Z,26.20
2023-03-16T01:53:59.239Z,24.75
2023-03-16T01:56:30.878Z,26.80
2023-03-16T01:58:59.971Z,23.90
2023-03-16T02:01:27.395Z,25.23
2023-03-16T02:04:07.486Z,21.97
2023-03-16T02:06:35.608Z,23.55
2023-03-16T02:09:04.674Z,24.33
2023-03-16T02:11:31.470Z,21.63
2023-03-16T02:14:07.644Z,21.67
2023-03-16T02:16:34.102Z,24.30
2023-03-16T02:19:00.606Z,21.70
2023-03-16T02:22:02.559Z,28.27
2023-03-16T02:24:30.896Z,26.60
2023-03-16T02:27:04.392Z,24.63
2023-03-16T02:30:01.330Z,22.40
2023-03-16T02:32:30.799Z,27.10
2023-03-16T02:34:59.950Z,22.90
2023-03-16T02:37:27.101Z,22.20
2023-03-16T02:39:53.607Z,24.30
2023-03-16T02:42:23.220Z,24.43
2023-03-16T02:44:54.678Z,25.83
2023-03-16T02:47:42.444Z,22.43
2023-03-16T02:50:10.432Z,19.87
2023-03-16T02:52:39.365Z,24.03
2023-03-16T02:55:06.497Z,23.07
2023-03-16T02:57:34.821Z,24.47
2023-03-16T03:00:01.148Z,25.20
2023-03-16T03:02:27.529Z,23.93
2023-03-16T03:04:53.878Z,27.17
2023-03-16T03:07:21.354Z,23.43
2023-03-16T03:09:48.060Z,24.10
2023-03-16T03:12:14.596Z,25.60
2023-03-16T03:14:40.943Z,26.77
2023-03-16T03:17:08.779Z,22.67
2023-03-16T03:19:36.529Z,27.40
2023-03-16T03:22:04.502Z,23.90
2023-03-16T03:24:31.599Z,24.07
2023-03-16T03:26:58.124Z,23.20
2023-03-16T03:29:24.484Z,23.87
2023-03-16T03:31:50.921Z,22.90
2023-03-16T03:34:17.286Z,25.27
2023-03-16T03:36:43.621Z,25.83
2023-03-16T03:39:09.948Z,21.67
2023-03-16T03:41:36.314Z,24.70
2023-03-16T03:44:04.550Z,23.43
2023-03-16T03:46:30.915Z,23.07
2023-03-16T03:48:57.710Z,30.03
2023-03-16T03:51:24.058Z,23.10
2023-03-16T03:53:50.391Z,23.47
2023-03-16T03:56:16.985Z,23.57
2023-03-16T03:58:43.683Z,26.97
2023-03-16T04:01:11.047Z,25.17
2023-03-16T04:03:37.729Z,23.47
2023-03-16T04:06:04.209Z,26.97
2023-03-16T04:08:30.686Z,25.27
2023-03-16T04:10:57.150Z,26.27
2023-03-16T04:13:23.566Z,29.60
2023-03-16T04:15:55.547Z,26.00
2023-03-16T04:18:21.931Z,24.53
2023-03-16T04:20:48.428Z,25.77
2023-03-16T04:23:15.034Z,25.27
2023-03-16T04:25:41.444Z,25.10
2023-03-16T04:28:08.083Z,23.70
2023-03-16T04:30:35.879Z,25.83
2023-03-16T04:33:02.323Z,27.50
2023-03-16T04:35:28.769Z,27.77
2023-03-16T04:37:55.111Z,33.37
2023-03-16T04:40:21.646Z,30.50
2023-03-16T04:42:49.048Z,28.50
2023-03-16T04:45:16.643Z,31.23
2023-03-16T04:47:44.012Z,28.67
2023-03-16T04:50:11.291Z,27.70
2023-03-16T04:52:38.186Z,32.53
2023-03-16T04:55:05.180Z,27.33
2023-03-16T04:57:31.826Z,28.33
2023-03-16T04:59:58.319Z,31.50
2023-03-16T05:02:24.711Z,30.17
2023-03-16T05:04:51.080Z,29.07
2023-03-16T05:07:17.433Z,27.73
2023-03-16T05:09:43.792Z,34.87
2023-03-16T05:12:10.763Z,29.60
2023-03-16T05:14:37.210Z,30.57
2023-03-16T05:17:03.915Z,31.83
2023-03-16T05:19:30.498Z,28.17
2023-03-16T05:21:56.983Z,34.90
2023-03-16T05:24:23.362Z,33.17
2023-03-16T05:26:49.847Z,31.67
2023-03-16T05:29:16.214Z,26.10
2023-03-16T05:31:42.638Z,33.10
2023-03-16T05:34:09.022Z,28.87
2023-03-16T05:36:35.726Z,28.07
2023-03-16T05:39:03.385Z,29.77
2023-03-16T05:41:29.776Z,28.93
2023-03-16T05:43:56.483Z,28.10
2023-03-16T05:46:22.978Z,29.47
2023-03-16T05:48:49.895Z,32.70
2023-03-16T05:51:16.273Z,29.30
2023-03-16T05:53:42.680Z,30.33
2023-03-16T05:56:10.104Z,30.30
2023-03-16T05:58:36.792Z,37.53
2023-03-16T06:01:03.461Z,30.03
2023-03-16T06:03:29.827Z,28.13
2023-03-16T06:05:56.264Z,31.77
2023-03-16T06:08:24.610Z,30.67
2023-03-16T06:10:52.304Z,29.37
2023-03-16T06:13:19.316Z,30.07
2023-03-16T06:15:46.744Z,33.03
2023-03-16T06:18:13.169Z,35.30
2023-03-16T06:20:39.844Z,28.50
2023-03-16T06:23:06.259Z,33.13
2023-03-16T06:25:34.282Z,25.90
2023-03-16T06:28:01.053Z,30.00
2023-03-16T06:30:28.060Z,32.93
2023-03-16T06:32:54.697Z,33.40
2023-03-16T06:35:21.860Z,30.13
2023-03-16T06:37:48.582Z,28.93
2023-03-16T06:40:15.007Z,32.53
2023-03-16T06:42:41.756Z,46.30
2023-03-16T06:45:10.766Z,38.00
2023-03-16T06:47:37.578Z,32.97
2023-03-16T06:50:10.256Z,27.20
2023-03-16T06:52:36.617Z,26.33
2023-03-16T06:55:04.765Z,27.57
2023-03-16T06:57:31.265Z,24.43
2023-03-16T06:59:57.664Z,23.60
2023-03-16T07:02:24.122Z,23.50
2023-03-16T07:04:50.735Z,20.30
2023-03-16T07:07:17.259Z,22.37
2023-03-16T07:09:43.766Z,19.90
2023-03-16T07:12:10.636Z,19.07
2023-03-16T07:14:37.585Z,18.57
2023-03-16T07:17:04.357Z,20.87
2023-03-16T07:19:31.152Z,21.30
2023-03-16T07:21:59.022Z,19.27
2023-03-16T07:24:25.592Z,17.40
2023-03-16T07:26:51.964Z,18.35
2023-03-16T07:29:18.612Z,17.00
2023-03-16T07:31:45.543Z,20.88
2023-03-16T07:34:11.897Z,19.05
2023-03-16T07:36:38.564Z,15.23
2023-03-16T07:39:05.639Z,15.00
2023-03-16T07:41:32.864Z,16.13
2023-03-16T07:44:03.206Z,17.27
2023-03-16T07:46:29.752Z,15.25
2023-03-16T07:48:56.671Z,14.27
2023-03-16T07:51:23.567Z,15.63
2023-03-16T07:53:50.350Z,15.90
2023-03-16T07:56:16.764Z,16.75
2023-03-16T07:58:43.386Z,16.73
2023-03-16T08:01:10.036Z,15.20
2023-03-16T08:03:36.575Z,15.18
2023-03-16T08:06:07.144Z,15.52
2023-03-16T08:08:33.664Z,16.10
2023-03-16T08:11:00.196Z,17.20
2023-03-16T08:13:27.654Z,15.73
2023-03-16T08:15:54.102Z,16.60
2023-03-16T08:18:20.509Z,17.42
2023-03-16T08:20:47.235Z,14.85
2023-03-16T08:23:13.817Z,14.35
2023-03-16T08:25:44.455Z,12.77
2023-03-16T08:28:11.932Z,13.43
2023-03-16T08:30:45.139Z,16.77
2023-03-16T08:33:11.764Z,19.50
2023-03-16T08:35:43.439Z,15.13
2023-03-16T08:38:10.629Z,11.88
2023-03-16T08:40:37.626Z,15.15
2023-03-16T08:43:04.476Z,12.63
2023-03-16T08:45:31.488Z,13.27
2023-03-16T08:47:58.274Z,14.63
2023-03-16T08:50:26.130Z,11.93
2023-03-16T08:52:54.516Z,12.73
2023-03-16T08:55:20.956Z,15.57
2023-03-16T08:57:47.843Z,11.55
2023-03-16T09:00:19.253Z,13.32
2023-03-16T09:05:29.561Z,13.15
2023-03-16T09:07:56.449Z,13.88
2023-03-16T09:10:23.045Z,13.32
2023-03-16T09:12:51.218Z,11.82
2023-03-16T09:15:19.177Z,9.80
2023-03-16T09:17:46.313Z,11.52
2023-03-16T09:20:22.256Z,9.52
2023-03-16T09:23:01.354Z,8.05
2023-03-16T09:25:28.504Z,11.10
2023-03-16T09:27:55.387Z,9.35
2023-03-16T09:30:22.034Z,7.65
2023-03-16T09:32:48.523Z,8.70
2023-03-16T09:35:15.258Z,9.38
2023-03-16T09:37:45.436Z,8.13
2023-03-16T09:40:26.231Z,7.65
2023-03-16T09:43:23.133Z,11.05
2023-03-16T09:46:03.635Z,7.38
2023-03-16T09:48:32.921Z,6.85
2023-03-16T09:51:03.732Z,7.80
2023-03-16T09:56:14.948Z,6.45
2023-03-16T09:58:41.569Z,8.18
2023-03-16T10:01:35.080Z,7.82
2023-03-16T10:04:36.530Z,7.15
2023-03-16T10:07:15.086Z,8.68
2023-03-16T10:09:50.613Z,6.88
2023-03-16T10:12:17.392Z,10.13
2023-03-16T10:14:58.367Z,6.43
2023-03-16T10:17:43.502Z,8.52
2023-03-16T10:20:23.219Z,8.57
2023-03-16T10:22:52.589Z,7.45
2023-03-16T10:25:34.514Z,7.40
2023-03-16T10:28:01.298Z,11.25
2023-03-16T10:30:37.165Z,6.18
2023-03-16T10:33:16.936Z,6.75
2023-03-16T10:36:05.479Z,6.78
2023-03-16T10:38:45.655Z,6.97
2023-03-16T10:41:18.933Z,6.75
2023-03-16T10:43:46.816Z,5.53
2023-03-16T10:46:19.652Z,6.03
2023-03-16T10:48:59.364Z,5.63
2023-03-16T10:51:29.853Z,5.22
2023-03-16T10:54:07.719Z,6.18
2023-03-16T10:56:34.978Z,6.80
2023-03-16T10:59:01.991Z,5.57
2023-03-16T11:01:31.159Z,5.03
2023-03-16T11:03:59.574Z,5.20
2023-03-16T11:06:29.044Z,3.95
2023-03-16T11:09:03.010Z,13.02
2023-03-16T11:11:33.184Z,4.82
2023-03-16T11:14:03.267Z,5.70
2023-03-16T11:16:50.520Z,5.30
2023-03-16T11:19:34.681Z,5.75
2023-03-16T11:22:09.106Z,4.10
2023-03-16T11:24:54.628Z,4.47
2023-03-16T11:27:30.474Z,5.07
2023-03-16T11:30:17.219Z,5.63
2023-03-16T11:32:49.676Z,4.32
2023-03-16T11:35:20.621Z,3.15
2023-03-16T11:37:51.128Z,3.17
2023-03-16T11:40:36.341Z,4.50
2023-03-16T11:43:20.562Z,4.53
2023-03-16T11:46:12.622Z,5.05
2023-03-16T11:48:51.940Z,4.50
2023-03-16T11:51:32.153Z,6.00
2023-03-16T11:54:11.129Z,6.13
2023-03-16T11:56:47.917Z,3.25
2023-03-16T11:59:15.707Z,4.10
2023-03-16T12:01:59.770Z,4.80
2023-03-16T12:04:44.485Z,3.58
2023-03-16T12:07:43.641Z,3.70
2023-03-16T12:10:26.369Z,3.42
2023-03-16T12:13:14.311Z,3.47
2023-03-16T12:15:43.760Z,5.47
2023-03-16T12:18:22.393Z,5.32
2023-03-16T12:20:56.560Z,3.03
2023-03-16T12:23:34.206Z,3.40
2023-03-16T12:26:01.059Z,4.75
2023-03-16T12:28:29.563Z,4.32
2023-03-16T12:31:07.043Z,3.38
2023-03-16T12:33:53.887Z,6.32
2023-03-16T12:36:47.761Z,4.60
2023-03-16T12:39:44.494Z,8.90
2023-03-16T12:42:40.820Z,4.90
2023-03-16T12:45:33.064Z,6.30
2023-03-16T12:48:33.611Z,3.75
2023-03-16T12:51:03.046Z,3.40
2023-03-16T12:53:46.918Z,3.75
2023-03-16T12:56:17.576Z,5.97
2023-03-16T13:01:14.097Z,4.82
2023-03-16T13:03:42.252Z,4.90
2023-03-16T13:06:22.276Z,6.85
2023-03-16T13:09:08.867Z,3.85
2023-03-16T13:11:46.965Z,5.22
2023-03-16T13:14:35.553Z,6.20
2023-03-16T13:17:15.832Z,4.13
2023-03-16T13:20:08.986Z,6.57
2023-03-16T13:22:51.903Z,5.80
2023-03-16T13:25:57.555Z,4.95
2023-03-16T13:28:29.846Z,4.78
2023-03-16T13:30:56.312Z,4.50
2023-03-16T13:33:34.854Z,5.35
2023-03-16T13:36:01.338Z,4.78
2023-03-16T13:38:28.759Z,4.20
2023-03-16T13:41:11.139Z,7.13
2023-03-16T13:43:45.568Z,5.75
2023-03-16T13:46:17.239Z,4.97
2023-03-16T13:48:43.999Z,5.38
2023-03-16T13:51:16.961Z,5.75
2023-03-16T13:53:43.819Z,6.88
2023-03-16T13:56:30.403Z,5.40
2023-03-16T13:58:58.700Z,4.50
2023-03-16T14:01:28.567Z,4.70
2023-03-16T14:03:58.755Z,8.05
2023-03-16T14:06:30.468Z,7.55
2023-03-16T14:09:00.799Z,5.20
2023-03-16T14:11:28.066Z,5.55
2023-03-16T14:13:57.066Z,10.13
2023-03-16T14:16:26.508Z,5.93
2023-03-16T14:19:17.381Z,8.70
2023-03-16T14:21:45.536Z,5.43
2023-03-16T14:24:34.909Z,7.03
2023-03-16T14:27:20.704Z,4.93
2023-03-16T14:29:54.331Z,8.77
2023-03-16T14:32:28.054Z,7.82
2023-03-16T14:35:10.734Z,5.82
2023-03-16T14:37:37.986Z,6.40
2023-03-16T14:40:08.130Z,7.55
2023-03-16T14:42:35.241Z,5.53
2023-03-16T14:45:05.109Z,7.75
2023-03-16T14:47:38.537Z,6.47
2023-03-16T14:50:13.187Z,8.13
2023-03-16T14:52:39.877Z,5.63
2023-03-16T14:55:19.506Z,8.15
2023-03-16T14:57:46.493Z,7.05
2023-03-16T15:00:15.970Z,4.88
2023-03-16T15:02:45.553Z,5.65
2023-03-16T15:05:21.609Z,7.40
2023-03-16T15:07:54.699Z,5.03
2023-03-16T15:10:31.359Z,7.78
2023-03-16T15:13:04.912Z,4.55
2023-03-16T15:15:33.714Z,7.63
2023-03-16T15:18:00.236Z,8.32
2023-03-16T15:20:33.070Z,4.15
2023-03-16T15:22:59.967Z,6.25
2023-03-16T15:25:51.723Z,5.22
2023-03-16T15:28:22.597Z,4.38
2023-03-16T15:31:02.487Z,6.13
2023-03-16T15:33:29.653Z,5.20
2023-03-16T15:35:58.319Z,6.13
2023-03-16T15:38:34.395Z,4.22
2023-03-16T15:41:00.946Z,4.25
2023-03-16T15:43:29.840Z,4.07
2023-03-16T15:45:57.604Z,3.40
2023-03-16T15:48:28.294Z,4.82
2023-03-16T15:53:36.032Z,4.22
2023-03-16T15:56:15.144Z,4.55
2023-03-16T15:58:46.812Z,5.32
2023-03-16T16:01:26.217Z,3.92
2023-03-16T16:03:54.032Z,3.55
2023-03-16T16:06:23.644Z,6.03
2023-03-16T16:08:51.337Z,4.38
2023-03-16T16:11:27.212Z,4.22
2023-03-16T16:13:58.262Z,5.18
2023-03-16T16:16:27.589Z,3.65
2023-03-16T16:18:54.339Z,2.60
2023-03-16T16:21:24.800Z,3.80
2023-03-16T16:23:52.387Z,3.15
2023-03-16T16:26:21.764Z,4.15
2023-03-16T16:28:48.442Z,3.08
2023-03-16T16:31:23.643Z,6.95
2023-03-16T16:33:53.425Z,4.72
2023-03-16T16:36:20.268Z,4.15
2023-03-16T16:38:48.070Z,4.53
2023-03-16T16:41:42.253Z,6.90
2023-03-16T16:44:17.267Z,3.05
2023-03-16T16:46:43.941Z,3.05
2023-03-16T16:49:23.128Z,3.47
2023-03-16T16:51:49.973Z,6.35
2023-03-16T16:54:21.293Z,3.60
2023-03-16T16:56:50.139Z,3.97
2023-03-16T16:59:20.878Z,4.50
2023-03-16T17:01:49.852Z,3.40
2023-03-16T17:04:19.334Z,5.70
2023-03-16T17:06:47.053Z,3.30
2023-03-16T17:09:13.614Z,4.38
2023-03-16T17:11:42.523Z,4.45
2023-03-16T17:14:14.871Z,5.75
2023-03-16T17:16:41.362Z,3.88
2023-03-16T17:19:22.447Z,5.45
2023-03-16T17:21:50.829Z,2.88
2023-03-16T17:24:17.855Z,4.70
2023-03-16T17:26:47.383Z,4.43
2023-03-16T17:29:26.645Z,3.38
2023-03-16T17:31:54.291Z,7.93
2023-03-16T17:34:24.254Z,5.07
2023-03-16T17:36:51.046Z,4.03
2023-03-16T17:39:20.004Z,7.13
2023-03-16T17:41:48.693Z,5.28
2023-03-16T17:44:16.210Z,8.48
2023-03-16T17:46:43.081Z,5.30
2023-03-16T17:49:13.914Z,6.03
2023-03-16T17:51:40.936Z,7.35
2023-03-16T17:54:09.241Z,6.40
2023-03-16T17:56:35.782Z,6.32
2023-03-16T17:59:06.861Z,5.22
2023-03-16T18:01:33.645Z,8.07
2023-03-16T18:04:03.619Z,5.07
2023-03-16T18:06:30.354Z,6.73
2023-03-16T18:09:00.241Z,7.70
2023-03-16T18:11:40.988Z,10.73
2023-03-16T18:14:16.498Z,6.90
2023-03-16T18:16:43.207Z,8.07
2023-03-16T18:19:24.503Z,7.95
2023-03-16T18:21:51.897Z,9.98
2023-03-16T18:24:18.331Z,7.90
2023-03-16T18:26:48.845Z,9.00
2023-03-16T18:29:15.575Z,8.70
2023-03-16T18:31:44.435Z,7.47
2023-03-16T18:34:21.306Z,10.75
2023-03-16T18:36:47.815Z,8.45
2023-03-16T18:39:20.872Z,9.40
2023-03-16T18:41:47.871Z,10.65
2023-03-16T18:44:18.540Z,7.75
2023-03-16T18:46:46.697Z,9.90
2023-03-16T18:49:24.326Z,12.27
2023-03-16T18:51:52.848Z,9.95
2023-03-16T18:54:25.478Z,12.32
2023-03-16T18:56:52.271Z,9.68
2023-03-16T18:59:19.038Z,7.43
2023-03-16T19:01:46.925Z,6.25
2023-03-16T19:04:21.450Z,10.07
2023-03-16T19:06:50.038Z,9.23
2023-03-16T19:09:24.172Z,9.82
2023-03-16T19:11:51.213Z,9.00
2023-03-16T19:14:24.370Z,7.55
2023-03-16T19:16:53.401Z,9.80
2023-03-16T19:19:21.727Z,9.98
2023-03-16T19:21:50.434Z,7.20
2023-03-16T19:24:30.123Z,9.25
2023-03-16T19:26:56.814Z,10.57
2023-03-16T19:29:31.114Z,12.85
2023-03-16T19:31:58.321Z,9.77
2023-03-16T19:34:25.232Z,9.32
2023-03-16T19:36:51.695Z,9.55
2023-03-16T19:39:18.173Z,9.02
2023-03-16T19:41:49.239Z,9.07
2023-03-16T19:44:21.248Z,8.90
2023-03-16T19:46:47.734Z,11.52
2023-03-16T19:49:18.920Z,9.88
2023-03-16T19:51:45.740Z,11.60
2023-03-16T19:54:27.572Z,7.80
2023-03-16T19:56:55.730Z,8.75
2023-03-16T19:59:26.387Z,7.25
2023-03-16T20:01:53.035Z,11.60
2023-03-16T20:04:25.631Z,13.68
2023-03-16T20:06:52.713Z,9.35
2023-03-16T20:09:20.098Z,10.20
2023-03-16T20:11:48.646Z,11.02
2023-03-16T20:14:31.295Z,8.85
2023-03-16T20:16:58.995Z,10.90
2023-03-16T20:19:26.699Z,13.05
2023-03-16T20:21:54.097Z,12.90
2023-03-16T20:24:21.044Z,8.82
2023-03-16T20:26:49.610Z,10.07
2023-03-16T20:29:29.346Z,11.82
2023-03-16T20:31:56.424Z,9.32
2023-03-16T20:34:26.480Z,7.97
2023-03-16T20:36:55.380Z,11.85
2023-03-16T20:39:22.153Z,9.63
2023-03-16T20:41:50.072Z,8.80
2023-03-16T20:44:21.976Z,6.18
2023-03-16T20:46:48.655Z,10.57
2023-03-16T20:49:24.221Z,9.18
2023-03-16T20:51:52.732Z,9.00
2023-03-16T20:54:19.283Z,9.93
2023-03-16T20:56:45.648Z,11.82
2023-03-16T20:59:23.346Z,12.52
2023-03-16T21:01:50.417Z,11.25
2023-03-16T21:04:22.656Z,10.10
2023-03-16T21:06:51.983Z,9.98
2023-03-16T21:09:20.562Z,10.18
2023-03-16T21:11:48.222Z,11.32
2023-03-16T21:14:21.845Z,8.25
2023-03-16T21:16:51.359Z,12.35
2023-03-16T21:19:20.722Z,10.65
2023-03-16T21:21:47.155Z,8.90
2023-03-16T21:24:13.701Z,13.00
2023-03-16T21:26:42.398Z,11.55
2023-03-16T21:29:16.029Z,8.57
2023-03-16T21:31:42.836Z,8.48
2023-03-16T21:34:24.150Z,9.32
2023-03-16T21:36:51.242Z,10.93
2023-03-16T21:39:20.505Z,14.02
2023-03-16T21:41:46.878Z,9.52
2023-03-16T21:44:15.964Z,12.38
2023-03-16T21:46:42.690Z,13.27
2023-03-16T21:49:12.302Z,16.40
2023-03-16T21:51:39.874Z,14.25
2023-03-16T21:54:13.317Z,8.15
2023-03-16T21:56:39.981Z,10.68
2023-03-16T21:59:08.668Z,9.63
2023-03-16T22:01:44.906Z,10.75
2023-03-16T22:04:17.542Z,9.70
2023-03-16T22:06:45.134Z,11.27
2023-03-16T22:09:20.570Z,10.23
2023-03-16T22:11:47.013Z,9.77
2023-03-16T22:14:13.498Z,8.75
2023-03-16T22:16:40.865Z,9.05
2023-03-16T22:19:12.166Z,7.93
2023-03-16T22:21:41.480Z,8.75
2023-03-16T22:24:15.253Z,8.50
2023-03-16T22:26:41.594Z,10.18
2023-03-16T22:29:23.029Z,10.15
2023-03-16T22:31:56.967Z,11.40
2023-03-16T22:34:31.196Z,11.13
2023-03-16T22:37:00.605Z,9.18
2023-03-16T22:39:36.631Z,10.57
2023-03-16T22:42:22.719Z,11.07
2023-03-16T22:44:51.809Z,10.27
2023-03-16T22:47:23.710Z,8.90
2023-03-16T22:49:50.776Z,9.80
2023-03-16T22:52:25.407Z,9.23
2023-03-16T22:54:52.762Z,11.63
2023-03-16T22:57:20.722Z,9.70
2023-03-16T22:59:48.200Z,9.77
2023-03-16T23:02:15.799Z,8.98
2023-03-16T23:04:42.317Z,11.15
2023-03-16T23:07:13.530Z,10.57
2023-03-16T23:09:41.399Z,11.05
2023-03-16T23:12:17.448Z,9.75
2023-03-16T23:14:43.787Z,8.85
2023-03-16T23:17:16.467Z,9.00
2023-03-16T23:19:42.970Z,11.45
2023-03-16T23:22:11.221Z,10.55
2023-03-16T23:24:39.804Z,9.85
2023-03-16T23:27:17.393Z,9.70
2023-03-16T23:29:44.142Z,8.82
2023-03-16T23:32:11.319Z,9.60
2023-03-16T23:34:37.797Z,9.05
2023-03-16T23:37:04.190Z,11.27
2023-03-16T23:39:31.786Z,10.95
2023-03-16T23:41:58.484Z,9.07
2023-03-16T23:44:28.278Z,9.82
2023-03-16T23:46:54.756Z,9.23
2023-03-16T23:49:24.210Z,11.45
2023-03-16T23:51:51.606Z,9.52
2023-03-16T23:54:21.382Z,9.68
2023-03-16T23:56:47.867Z,11.68
2023-03-16T23:59:14.333Z,9.68
